createdAt,value
2018-08-06T00:00:38.045Z,23.40
2018-08-06T00:03:07.818Z,23.40
2018-08-06T00:05:37.267Z,23.50
2018-08-06T00:08:07.738Z,23.50
2018-08-06T00:10:37.181Z,23.50
2018-08-06T00:13:06.730Z,23.50
2018-08-06T00:15:36.231Z,23.50
2018-08-06T00:18:05.872Z,23.50
2018-08-06T00:20:35.409Z,23.50
2018-08-06T00:23:04.953Z,23.50
2018-08-06T00:25:34.437Z,23.50
2018-08-06T00:28:03.918Z,23.50
2018-08-06T00:30:33.431Z,23.40
2018-08-06T00:33:02.799Z,23.40
2018-08-06T00:35:32.225Z,23.40
2018-08-06T00:38:01.750Z,23.40
2018-08-06T00:40:31.220Z,23.40
2018-08-06T00:43:00.730Z,23.40
2018-08-06T00:45:30.266Z,23.40
2018-08-06T00:47:59.640Z,23.40
2018-08-06T00:50:29.074Z,23.40
2018-08-06T00:52:58.518Z,23.40
2018-08-06T00:55:27.941Z,23.40
2018-08-06T00:57:57.381Z,23.40
2018-08-06T01:00:26.849Z,23.40
2018-08-06T01:02:56.336Z,23.40
2018-08-06T01:05:25.753Z,23.40
2018-08-06T01:07:55.244Z,23.40
2018-08-06T01:10:24.677Z,23.30
2018-08-06T01:12:54.125Z,23.40
2018-08-06T01:15:23.560Z,23.30
2018-08-06T01:17:52.990Z,23.30
2018-08-06T01:20:22.384Z,23.30
2018-08-06T01:22:51.791Z,23.30
2018-08-06T01:25:21.151Z,23.30
2018-08-06T01:27:50.638Z,23.30
2018-08-06T01:30:20.001Z,23.20
2018-08-06T01:32:49.408Z,23.20
2018-08-06T01:37:47.932Z,23.20
2018-08-06T01:40:17.404Z,23.20
2018-08-06T01:42:46.910Z,23.20
2018-08-06T01:45:17.175Z,23.20
2018-08-06T01:47:46.610Z,23.20
2018-08-06T01:50:16.716Z,23.20
2018-08-06T01:52:46.145Z,23.20
2018-08-06T01:55:15.584Z,23.10
2018-08-06T01:57:45.072Z,23.20
2018-08-06T02:00:16.452Z,23.20
2018-08-06T02:05:15.008Z,23.10
2018-08-06T02:07:44.461Z,23.10
2018-08-06T02:10:15.739Z,23.10
2018-08-06T02:12:45.795Z,23.10
2018-08-06T02:15:15.287Z,23.10
2018-08-06T02:17:44.729Z,23.10
2018-08-06T02:20:17.391Z,23.10
2018-08-06T02:22:48.140Z,23.10
2018-08-06T02:25:17.739Z,23.10
2018-08-06T02:27:47.227Z,23.10
2018-08-06T02:30:17.009Z,23.10
2018-08-06T02:32:46.451Z,23.10
2018-08-06T02:35:16.497Z,23.10
2018-08-06T02:37:46.006Z,23.10
2018-08-06T02:40:20.569Z,23.00
2018-08-06T02:42:50.229Z,23.00
2018-08-06T02:45:19.728Z,23.00
2018-08-06T02:47:49.171Z,23.00
2018-08-06T02:50:18.588Z,23.00
2018-08-06T02:52:48.000Z,23.00
2018-08-06T02:55:17.863Z,23.00
2018-08-06T02:57:47.306Z,23.00
2018-08-06T03:00:18.326Z,23.00
2018-08-06T03:02:48.161Z,23.00
2018-08-06T03:05:19.213Z,23.00
2018-08-06T03:07:48.770Z,23.00
2018-08-06T03:10:18.148Z,22.90
2018-08-06T03:12:47.985Z,22.90
2018-08-06T03:15:17.710Z,22.90
2018-08-06T03:17:47.166Z,22.90
2018-08-06T03:20:16.585Z,22.90
2018-08-06T03:22:46.122Z,22.90
2018-08-06T03:25:16.976Z,22.90
2018-08-06T03:27:46.496Z,22.90
2018-08-06T03:30:17.625Z,22.90
2018-08-06T03:32:48.196Z,22.80
2018-08-06T03:37:46.826Z,22.70
2018-08-06T03:40:16.333Z,22.70
2018-08-06T03:42:45.954Z,22.70
2018-08-06T03:45:15.443Z,22.70
2018-08-06T03:47:44.825Z,22.70
2018-08-06T03:50:14.740Z,22.70
2018-08-06T03:52:44.332Z,22.60
2018-08-06T03:55:13.699Z,22.60
2018-08-06T03:57:43.154Z,22.60
2018-08-06T04:00:14.675Z,22.60
2018-08-06T04:02:44.679Z,22.60
2018-08-06T04:05:15.549Z,22.60
2018-08-06T04:07:45.123Z,22.50
2018-08-06T04:10:16.719Z,22.50
2018-08-06T04:12:46.370Z,22.50
2018-08-06T04:15:15.770Z,22.50
2018-08-06T04:17:45.165Z,22.50
2018-08-06T04:20:14.725Z,22.50
2018-08-06T04:22:44.473Z,22.50
2018-08-06T04:25:14.009Z,22.50
2018-08-06T04:27:43.436Z,22.50
2018-08-06T04:30:14.171Z,22.60
2018-08-06T04:32:44.523Z,22.60
2018-08-06T04:35:14.301Z,22.60
2018-08-06T04:37:44.690Z,22.60
2018-08-06T04:40:14.459Z,22.60
2018-08-06T04:42:44.106Z,22.60
2018-08-06T04:45:13.565Z,22.60
2018-08-06T04:47:43.207Z,22.60
2018-08-06T04:50:14.464Z,22.50
2018-08-06T04:52:44.856Z,22.50
2018-08-06T04:55:15.097Z,22.60
2018-08-06T04:57:44.620Z,22.60
2018-08-06T05:00:15.315Z,22.60
2018-08-06T05:02:44.977Z,22.60
2018-08-06T05:05:14.442Z,22.60
2018-08-06T05:07:43.986Z,22.60
2018-08-06T05:10:13.373Z,22.60
2018-08-06T05:12:42.835Z,22.70
2018-08-06T05:15:12.222Z,22.80
2018-08-06T05:17:41.625Z,22.90
2018-08-06T05:20:11.007Z,23.00
2018-08-06T05:22:40.575Z,23.10
2018-08-06T05:25:10.930Z,23.20
2018-08-06T05:27:40.328Z,23.30
2018-08-06T05:30:12.463Z,23.40
2018-08-06T05:32:41.852Z,23.50
2018-08-06T05:35:11.424Z,23.60
2018-08-06T05:37:40.901Z,23.70
2018-08-06T05:40:10.347Z,23.80
2018-08-06T05:42:39.693Z,23.90
2018-08-06T05:45:10.454Z,24.00
2018-08-06T05:47:39.837Z,24.10
2018-08-06T05:50:12.500Z,24.20
2018-08-06T05:52:42.266Z,24.30
2018-08-06T05:55:12.240Z,24.40
2018-08-06T05:57:42.345Z,24.50
2018-08-06T06:00:16.907Z,24.60
2018-08-06T06:02:46.902Z,24.60
2018-08-06T06:05:16.339Z,24.80
2018-08-06T06:07:45.728Z,24.80
2018-08-06T06:10:15.912Z,25.00
2018-08-06T06:12:45.296Z,25.00
2018-08-06T06:15:16.551Z,25.10
2018-08-06T06:17:45.888Z,25.20
2018-08-06T06:20:15.325Z,25.30
2018-08-06T06:22:44.879Z,25.40
2018-08-06T06:25:14.650Z,25.40
2018-08-06T06:27:44.568Z,25.40
2018-08-06T06:30:17.073Z,25.50
2018-08-06T06:32:46.780Z,25.60
2018-08-06T06:35:16.312Z,25.80
2018-08-06T06:37:45.918Z,25.80
2018-08-06T06:40:15.854Z,25.90
2018-08-06T06:42:45.293Z,26.00
2018-08-06T06:45:14.714Z,26.10
2018-08-06T06:47:44.306Z,26.10
2018-08-06T06:50:13.728Z,26.20
2018-08-06T06:52:43.214Z,26.20
2018-08-06T06:55:13.800Z,26.30
2018-08-06T06:57:43.910Z,26.30
2018-08-06T07:00:13.313Z,26.40
2018-08-06T07:02:43.167Z,26.40
2018-08-06T07:05:12.508Z,26.40
2018-08-06T07:07:44.035Z,26.50
2018-08-06T07:10:13.932Z,26.50
2018-08-06T07:12:43.385Z,26.50
2018-08-06T07:15:16.112Z,26.60
2018-08-06T07:17:47.568Z,26.60
2018-08-06T07:20:19.425Z,26.60
2018-08-06T07:22:48.811Z,26.60
2018-08-06T07:25:18.187Z,26.70
2018-08-06T07:27:47.561Z,26.70
2018-08-06T07:30:16.911Z,26.70
2018-08-06T07:32:46.332Z,26.70
2018-08-06T07:35:15.850Z,26.70
2018-08-06T07:37:45.197Z,26.80
2018-08-06T07:40:15.378Z,26.80
2018-08-06T07:42:44.776Z,26.90
2018-08-06T07:45:20.050Z,26.90
2018-08-06T07:50:20.644Z,27.00
2018-08-06T07:52:50.021Z,27.00
2018-08-06T07:55:19.368Z,27.00
2018-08-06T07:57:48.712Z,27.10
2018-08-06T08:00:20.071Z,27.10
2018-08-06T08:02:49.493Z,27.10
2018-08-06T08:05:19.553Z,27.10
2018-08-06T08:07:49.359Z,27.20
2018-08-06T08:10:23.221Z,27.20
2018-08-06T08:12:52.631Z,27.20
2018-08-06T08:15:24.907Z,27.30
2018-08-06T08:17:55.120Z,27.30
2018-08-06T08:20:24.482Z,27.30
2018-08-06T08:22:53.891Z,27.40
2018-08-06T08:25:23.785Z,27.40
2018-08-06T08:27:53.180Z,27.40
2018-08-06T08:30:22.600Z,27.40
2018-08-06T08:32:52.016Z,27.50
2018-08-06T08:35:25.260Z,27.50
2018-08-06T08:37:54.592Z,27.50
2018-08-06T08:40:24.013Z,27.50
2018-08-06T08:42:53.387Z,27.60
2018-08-06T08:45:22.791Z,27.60
2018-08-06T08:47:52.105Z,27.60
2018-08-06T08:50:21.536Z,27.70
2018-08-06T08:52:50.857Z,27.70
2018-08-06T08:55:20.858Z,27.70
2018-08-06T08:57:50.286Z,27.70
2018-08-06T09:00:22.017Z,27.80
2018-08-06T09:02:52.404Z,27.80
2018-08-06T09:05:21.966Z,27.80
2018-08-06T09:07:52.378Z,27.80
2018-08-06T09:10:21.861Z,27.90
2018-08-06T09:12:51.233Z,27.90
2018-08-06T09:15:24.328Z,27.90
2018-08-06T09:20:23.649Z,27.90
2018-08-06T09:22:53.063Z,27.90
2018-08-06T09:25:23.468Z,28.00
2018-08-06T09:27:52.960Z,28.00
2018-08-06T09:30:23.688Z,28.00
2018-08-06T09:32:54.286Z,28.00
2018-08-06T09:35:23.676Z,28.00
2018-08-06T09:37:53.007Z,28.10
2018-08-06T09:40:23.320Z,28.10
2018-08-06T09:42:53.137Z,28.10
2018-08-06T09:45:23.159Z,28.10
2018-08-06T09:50:23.201Z,28.20
2018-08-06T09:52:53.448Z,28.20
2018-08-06T09:57:54.317Z,28.30
2018-08-06T10:00:29.216Z,28.30
2018-08-06T10:03:00.022Z,28.30
2018-08-06T10:05:29.848Z,28.30
2018-08-06T10:07:59.171Z,28.30
2018-08-06T10:10:28.508Z,28.40
2018-08-06T10:12:57.880Z,28.40
2018-08-06T10:15:27.219Z,28.40
2018-08-06T10:17:56.760Z,28.40
2018-08-06T10:20:26.737Z,28.50
2018-08-06T10:22:56.084Z,28.50
2018-08-06T10:25:25.432Z,28.50
2018-08-06T10:27:54.748Z,28.60
2018-08-06T10:30:24.281Z,28.60
2018-08-06T10:32:53.593Z,28.60
2018-08-06T10:35:22.972Z,28.70
2018-08-06T10:37:52.340Z,28.70
2018-08-06T10:40:22.838Z,28.80
2018-08-06T10:42:52.262Z,28.80
2018-08-06T10:45:22.823Z,28.80
2018-08-06T10:47:52.663Z,28.90
2018-08-06T10:50:22.057Z,28.90
2018-08-06T10:52:51.439Z,28.90
2018-08-06T10:55:20.813Z,28.90
2018-08-06T10:57:50.167Z,29.00
2018-08-06T11:00:20.771Z,29.00
2018-08-06T11:02:50.614Z,29.00
2018-08-06T11:05:20.577Z,29.00
2018-08-06T11:07:49.912Z,29.00
2018-08-06T11:10:21.524Z,29.10
2018-08-06T11:12:50.929Z,29.10
2018-08-06T11:15:21.832Z,29.10
2018-08-06T11:17:51.226Z,29.10
2018-08-06T11:20:21.316Z,29.10
2018-08-06T11:22:50.695Z,29.10
2018-08-06T11:25:21.900Z,29.20
2018-08-06T11:27:51.288Z,29.20
2018-08-06T11:30:21.933Z,29.20
2018-08-06T11:32:51.973Z,29.20
2018-08-06T11:35:21.314Z,29.30
2018-08-06T11:37:50.770Z,29.30
2018-08-06T11:40:20.112Z,29.30
2018-08-06T11:42:49.586Z,29.40
2018-08-06T11:45:20.166Z,29.40
2018-08-06T11:47:50.420Z,29.50
2018-08-06T11:50:19.809Z,29.50
2018-08-06T11:52:49.255Z,29.60
2018-08-06T11:55:18.662Z,29.60
2018-08-06T11:57:48.032Z,29.60
2018-08-06T12:00:20.963Z,29.60
2018-08-06T12:02:50.351Z,29.70
2018-08-06T12:05:23.109Z,29.70
2018-08-06T12:07:58.986Z,29.70
2018-08-06T12:10:31.225Z,29.80
2018-08-06T12:13:05.320Z,29.80
2018-08-06T12:15:37.408Z,29.80
2018-08-06T12:18:09.082Z,29.80
2018-08-06T12:20:38.489Z,29.90
2018-08-06T12:23:07.995Z,30.00
2018-08-06T12:25:37.406Z,30.00
2018-08-06T12:28:06.811Z,30.10
2018-08-06T12:30:36.204Z,30.20
2018-08-06T12:33:05.645Z,30.20
2018-08-06T12:35:35.032Z,30.30
2018-08-06T12:38:04.435Z,30.30
2018-08-06T12:40:33.802Z,30.30
2018-08-06T12:43:03.149Z,30.30
2018-08-06T12:45:32.671Z,30.40
2018-08-06T12:48:02.033Z,30.40
2018-08-06T12:53:00.495Z,30.40
2018-08-06T12:55:29.886Z,30.50
2018-08-06T12:57:59.286Z,30.50
2018-08-06T13:00:28.679Z,30.50
2018-08-06T13:02:58.069Z,30.50
2018-08-06T13:05:27.432Z,30.50
2018-08-06T13:07:56.864Z,30.60
2018-08-06T13:10:26.221Z,30.60
2018-08-06T13:12:55.641Z,30.50
2018-08-06T13:15:24.967Z,30.50
2018-08-06T13:17:54.410Z,30.50
2018-08-06T13:20:23.751Z,30.50
2018-08-06T13:22:53.151Z,30.50
2018-08-06T13:25:22.642Z,30.40
2018-08-06T13:27:52.008Z,30.40
2018-08-06T13:30:21.389Z,30.40
2018-08-06T13:32:50.771Z,30.50
2018-08-06T13:35:20.180Z,30.50
2018-08-06T13:37:49.612Z,30.50
2018-08-06T13:40:18.943Z,30.50
2018-08-06T13:42:48.329Z,30.60
2018-08-06T13:45:17.672Z,30.60
2018-08-06T13:47:47.042Z,30.70
2018-08-06T13:50:16.478Z,30.70
2018-08-06T13:52:45.831Z,30.70
2018-08-06T13:55:15.290Z,30.80
2018-08-06T13:57:44.674Z,30.80
2018-08-06T14:00:17.022Z,30.80
2018-08-06T14:02:46.523Z,30.80
2018-08-06T14:05:17.035Z,30.90
2018-08-06T14:07:47.392Z,30.90
2018-08-06T14:10:17.059Z,30.90
2018-08-06T14:12:46.624Z,30.90
2018-08-06T14:15:16.003Z,30.80
2018-08-06T14:17:45.417Z,30.80
2018-08-06T14:20:16.958Z,30.80
2018-08-06T14:22:46.305Z,30.90
2018-08-06T14:25:15.701Z,30.90
2018-08-06T14:27:45.069Z,31.00
2018-08-06T14:30:16.056Z,31.00
2018-08-06T14:32:45.863Z,31.10
2018-08-06T14:35:15.707Z,31.10
2018-08-06T14:37:45.075Z,31.10
2018-08-06T14:40:16.956Z,31.10
2018-08-06T14:42:46.707Z,31.10
2018-08-06T14:45:16.221Z,31.10
2018-08-06T14:47:45.558Z,31.10
2018-08-06T14:50:15.487Z,31.10
2018-08-06T14:52:44.862Z,31.10
2018-08-06T14:55:14.227Z,31.10
2018-08-06T14:57:43.628Z,31.10
2018-08-06T15:00:21.825Z,31.10
2018-08-06T15:02:52.436Z,31.10
2018-08-06T15:05:21.868Z,31.10
2018-08-06T15:07:51.366Z,31.10
2018-08-06T15:10:20.847Z,31.10
2018-08-06T15:12:50.163Z,31.00
2018-08-06T15:15:19.648Z,31.00
2018-08-06T15:17:49.015Z,31.00
2018-08-06T15:20:19.460Z,30.90
2018-08-06T15:22:49.060Z,30.90
2018-08-06T15:25:21.103Z,30.90
2018-08-06T15:27:50.746Z,30.90
2018-08-06T15:30:20.191Z,30.80
2018-08-06T15:32:49.602Z,30.90
2018-08-06T15:35:18.984Z,30.80
2018-08-06T15:37:48.418Z,30.80
2018-08-06T15:40:19.708Z,30.80
2018-08-06T15:42:49.133Z,30.70
2018-08-06T15:45:18.569Z,30.70
2018-08-06T15:47:47.937Z,30.70
2018-08-06T15:50:19.745Z,30.70
2018-08-06T15:52:49.147Z,30.70
2018-08-06T15:55:18.564Z,30.70
2018-08-06T15:57:47.949Z,30.70
2018-08-06T16:00:18.588Z,30.70
2018-08-06T16:02:48.137Z,30.70
2018-08-06T16:05:17.515Z,30.70
2018-08-06T16:07:47.041Z,30.70
2018-08-06T16:10:16.755Z,30.70
2018-08-06T16:12:46.128Z,30.70
2018-08-06T16:15:16.304Z,30.70
2018-08-06T16:17:45.942Z,30.80
2018-08-06T16:20:16.578Z,30.70
2018-08-06T16:22:46.042Z,30.70
2018-08-06T16:25:15.628Z,30.80
2018-08-06T16:27:45.055Z,30.70
2018-08-06T16:30:20.106Z,30.80
2018-08-06T16:32:49.905Z,30.80
2018-08-06T16:35:21.429Z,30.80
2018-08-06T16:37:52.732Z,30.80
2018-08-06T16:40:22.133Z,30.80
2018-08-06T16:42:52.113Z,30.80
2018-08-06T16:45:21.790Z,30.90
2018-08-06T16:47:51.286Z,30.80
2018-08-06T16:50:20.685Z,30.80
2018-08-06T16:52:50.575Z,30.80
2018-08-06T16:57:48.761Z,30.80
2018-08-06T17:00:20.459Z,30.80
2018-08-06T17:02:50.865Z,30.80
2018-08-06T17:05:20.292Z,30.80
2018-08-06T17:07:50.505Z,30.80
2018-08-06T17:10:21.155Z,30.80
2018-08-06T17:12:52.531Z,30.80
2018-08-06T17:15:22.497Z,30.80
2018-08-06T17:17:54.964Z,30.70
2018-08-06T17:20:25.258Z,30.70
2018-08-06T17:22:54.694Z,30.70
2018-08-06T17:25:24.084Z,30.70
2018-08-06T17:27:53.491Z,30.70
2018-08-06T17:30:22.841Z,30.60
2018-08-06T17:32:52.239Z,30.60
2018-08-06T17:35:21.702Z,30.60
2018-08-06T17:37:51.108Z,30.50
2018-08-06T17:40:20.532Z,30.50
2018-08-06T17:42:50.013Z,30.50
2018-08-06T17:45:21.040Z,30.40
2018-08-06T17:47:50.509Z,30.40
2018-08-06T17:50:21.270Z,30.30
2018-08-06T17:52:51.517Z,30.30
2018-08-06T17:55:21.953Z,30.30
2018-08-06T17:57:51.393Z,30.30
2018-08-06T18:00:21.104Z,30.30
2018-08-06T18:02:50.641Z,30.20
2018-08-06T18:05:20.074Z,30.20
2018-08-06T18:07:49.526Z,30.20
2018-08-06T18:10:19.094Z,30.20
2018-08-06T18:12:48.776Z,30.10
2018-08-06T18:15:18.177Z,30.10
2018-08-06T18:17:47.860Z,30.10
2018-08-06T18:20:18.724Z,30.10
2018-08-06T18:22:49.119Z,30.10
2018-08-06T18:25:19.572Z,30.00
2018-08-06T18:27:49.938Z,30.00
2018-08-06T18:30:21.611Z,29.90
2018-08-06T18:32:51.234Z,29.90
2018-08-06T18:35:20.941Z,29.90
2018-08-06T18:37:50.620Z,29.80
2018-08-06T18:40:24.068Z,29.80
2018-08-06T18:42:53.507Z,29.70
2018-08-06T18:45:22.975Z,29.70
2018-08-06T18:47:53.078Z,29.70
2018-08-06T18:50:22.531Z,29.60
2018-08-06T18:52:52.106Z,29.60
2018-08-06T18:55:22.438Z,29.50
2018-08-06T18:57:51.906Z,29.50
2018-08-06T19:00:22.910Z,29.40
2018-08-06T19:02:52.638Z,29.40
2018-08-06T19:05:22.411Z,29.30
2018-08-06T19:07:52.508Z,29.20
2018-08-06T19:10:23.486Z,29.20
2018-08-06T19:12:58.131Z,29.10
2018-08-06T19:15:27.615Z,29.10
2018-08-06T19:18:02.268Z,29.00
2018-08-06T19:20:31.769Z,29.00
2018-08-06T19:23:01.299Z,28.90
2018-08-06T19:25:32.025Z,28.80
2018-08-06T19:28:01.645Z,28.80
2018-08-06T19:30:36.516Z,28.70
2018-08-06T19:33:06.579Z,28.70
2018-08-06T19:35:37.285Z,28.70
2018-08-06T19:38:06.736Z,28.60
2018-08-06T19:40:36.186Z,28.60
2018-08-06T19:43:10.953Z,28.60
2018-08-06T19:45:40.413Z,28.50
2018-08-06T19:48:09.900Z,28.50
2018-08-06T19:50:41.241Z,28.50
2018-08-06T19:53:10.684Z,28.40
2018-08-06T19:55:45.393Z,28.40
2018-08-06T19:58:14.785Z,28.30
2018-08-06T20:00:44.226Z,28.30
2018-08-06T20:03:13.703Z,28.20
2018-08-06T20:05:43.603Z,28.20
2018-08-06T20:08:13.250Z,28.10
2018-08-06T20:10:42.720Z,28.10
2018-08-06T20:13:12.164Z,28.00
2018-08-06T20:15:41.625Z,28.00
2018-08-06T20:18:11.106Z,27.90
2018-08-06T20:20:40.711Z,27.90
2018-08-06T20:23:10.346Z,27.90
2018-08-06T20:25:45.040Z,27.80
2018-08-06T20:28:14.503Z,27.80
2018-08-06T20:33:20.624Z,27.70
2018-08-06T20:35:50.406Z,27.60
2018-08-06T20:38:21.916Z,27.60
2018-08-06T20:40:55.189Z,27.60
2018-08-06T20:43:24.604Z,27.60
2018-08-06T20:45:54.086Z,27.50
2018-08-06T20:48:27.897Z,27.50
2018-08-06T20:50:57.447Z,27.40
2018-08-06T20:53:27.345Z,27.40
2018-08-06T20:57:06.577Z,27.30
2018-08-06T20:59:36.146Z,27.30
2018-08-06T21:02:16.577Z,27.30
2018-08-06T21:07:15.620Z,27.10
2018-08-06T21:09:45.601Z,27.00
2018-08-06T21:12:15.040Z,27.00
2018-08-06T21:15:04.867Z,27.00
2018-08-06T21:17:45.480Z,26.90
2018-08-06T21:20:16.995Z,26.90
2018-08-06T21:22:48.499Z,26.80
2018-08-06T21:25:22.774Z,26.80
2018-08-06T21:27:52.992Z,26.80
2018-08-06T21:30:26.752Z,26.70
2018-08-06T21:32:57.617Z,26.70
2018-08-06T21:35:30.563Z,26.70
2018-08-06T21:38:00.058Z,26.70
2018-08-06T21:40:32.688Z,26.60
2018-08-06T21:43:02.161Z,26.60
2018-08-06T21:45:31.757Z,26.50
2018-08-06T21:48:01.160Z,26.50
2018-08-06T21:50:30.610Z,26.40
2018-08-06T21:53:00.026Z,26.40
2018-08-06T21:55:29.514Z,26.40
2018-08-06T21:57:58.946Z,26.30
2018-08-06T22:00:35.567Z,26.30
2018-08-06T22:03:07.402Z,26.20
2018-08-06T22:05:36.891Z,26.20
2018-08-06T22:08:06.357Z,26.10
2018-08-06T22:10:36.026Z,26.10
2018-08-06T22:13:06.131Z,26.10
2018-08-06T22:15:35.611Z,26.10
2018-08-06T22:18:05.697Z,26.10
2018-08-06T22:20:35.121Z,26.00
2018-08-06T22:23:04.524Z,26.00
2018-08-06T22:25:33.962Z,26.00
2018-08-06T22:28:03.409Z,26.00
2018-08-06T22:30:32.848Z,26.00
2018-08-06T22:33:02.316Z,25.90
2018-08-06T22:35:31.762Z,25.90
2018-08-06T22:38:01.177Z,25.90
2018-08-06T22:40:30.612Z,25.90
2018-08-06T22:43:00.036Z,25.90
2018-08-06T22:45:29.469Z,25.90
2018-08-06T22:47:58.895Z,25.80
2018-08-06T22:50:28.272Z,25.80
2018-08-06T22:52:57.719Z,25.70
2018-08-06T22:55:27.133Z,25.70
2018-08-06T22:57:56.596Z,25.70
2018-08-06T23:00:25.987Z,25.60
2018-08-06T23:05:24.615Z,25.60
2018-08-06T23:07:54.072Z,25.50
2018-08-06T23:10:23.549Z,25.50
2018-08-06T23:12:52.965Z,25.50
2018-08-06T23:15:22.412Z,25.40
2018-08-06T23:17:51.898Z,25.40
2018-08-06T23:20:21.352Z,25.40
2018-08-06T23:22:50.809Z,25.30
2018-08-06T23:25:23.288Z,25.30
2018-08-06T23:27:52.754Z,25.30
2018-08-06T23:30:22.206Z,25.20
2018-08-06T23:32:51.594Z,25.20
2018-08-06T23:35:20.957Z,25.20
2018-08-06T23:37:50.437Z,25.20
2018-08-06T23:40:19.909Z,25.10
2018-08-06T23:42:49.289Z,25.10
2018-08-06T23:45:18.759Z,25.00
2018-08-06T23:47:48.156Z,25.00
2018-08-06T23:50:17.531Z,25.00
2018-08-06T23:52:47.037Z,25.00
2018-08-06T23:55:18.561Z,25.00
2018-08-06T23:57:48.040Z,25.00
